Details From HTDA - Mwalimu Julius K Nyerere Intl
To VRMM - Male Intl
Flight Number -
Tags Decoded
Created
Modified
Stats Distance 2,263 nm / 4,191 km
Max Altitude 0 ft / 0 m
Waypoints 7
Social Downloads 0
Likes 0
Share VATSIM

Download

Looking for another format? Having issues loading an existing format? Contact us
Advertisement - Login to hide

Notes

Decoded

Route

HTDA ELAVA IMKAK PRA OTKIR ESKOL VRMM

ID Type Via Altitude Latitude Longitude Leg Dist Tot Dist Heading (true) Name
O HTDA APT - 0 ft / 0 m -6.87359˚ 39.19790˚ - 0 nm - -
ELAVA FIX - 0 ft / 0 m -5.10673˚ 40.42253˚ 128 nm 128 nm 35° / 35° -
IMKAK FIX - 0 ft / 0 m -4.07232˚ 41.12405˚ 74 nm 203 nm 34° / 34° -
PRA VOR - 0 ft / 0 m -4.30737˚ 55.70707˚ 873 nm 1077 nm 91° / 90° PRASLIN VOR-DME
OTKIR FIX - 0 ft / 0 m -2.43586˚ 60.00100˚ 280 nm 1358 nm 67° / 66° -
ESKOL FIX - 0 ft / 0 m 3.79472˚ 72.79750˚ 854 nm 2212 nm 64° / 64° -
O VRMM APT - 0 ft / 0 m 4.20629˚ 73.52889˚ 50 nm 2263 nm 61° / 61° -

Altitude Profile

Advertisement - Login to hide

Weather


0- 5 10 15 20 25 30 35+ Temperature / ° C

Clouds and Precipitation
Forecast for 2018-05-24 00:00 UTC. Updated 5 hours ago

Ground ~20,000 ft ~40,000 ft Winds

HTDA

Details ICAO HTDA (DAR)
Name MWALIMU JULIUS K NYERERE INTL
Region Tanzania
Timezone Africa/Dar_es_Salaam (UTC+3.0)
Stats Elevation 182 ft / 55 m (AMSL)
Location -6.875048° 39.204265°
Runways 2
Magnetic Variation 2.126° W

METAR

HTDA 240400Z 20005KT 9999 FEW014 23/22 Q1016 NOSIG

Decode

TAF

TAF HTDA 232300Z 2400/2506 00000KT 9999 FEW015 FEW016CB

Decode

Departure Runways

ID Width Length Bearing (true) Bearing (mag) Surface Threshold Offset Overrun Length
05 151 ft / 46 m 9,868 ft / 3,008 m 44.94° 47.07° Asphalt 0 ft / 0 m 197 ft / 60 m
14 98 ft / 30 m 3,303 ft / 1,007 m 135.15° 137.28° Asphalt 0 ft / 0 m 0 ft / 0 m
23 151 ft / 46 m 9,868 ft / 3,008 m 224.94° 227.07° Asphalt 0 ft / 0 m 197 ft / 60 m
32 98 ft / 30 m 3,303 ft / 1,007 m 315.15° 317.28° Asphalt 0 ft / 0 m 299 ft / 91 m

VRMM

Details ICAO VRMM (MLE)
Name MALE INTL
Region Maldives
Timezone Indian/Maldives (UTC+5.0)
Stats Elevation 6 ft / 2 m (AMSL)
Location 4.191832° 73.529128°
Runways 1
Magnetic Variation 2.801° W

METAR

Not found

TAF

TAF VRMM 232300Z 2400/2506 26018KT 9000 FEW017TCU TEMPO 2400/2406 27018G38KT 4000 SHRA FEW017CB BKN100

Decode

Destination Runways

ID Width Length Bearing (true) Bearing (mag) Surface Threshold Offset Overrun Length
18 148 ft / 45 m 10,556 ft / 3,218 m 179.06° 181.86° Asphalt 328 ft / 100 m 201 ft / 61 m
36 148 ft / 45 m 10,556 ft / 3,218 m 359.06° 1.86° Asphalt 952 ft / 290 m 238 ft / 73 m

Approach Navaids

Runway Type Ident Frequency Range Bearing (true) Bearing (mag) Slope Elevation
36 Localiser IML 108.70 MHz 18 nm / 33 km 359.58° 2.38° - 5 ft / 2 m (AMSL)
36 Glidescope IML 108.70 MHz 10 nm / 19 km 359.06° 1.86° 3.00° 5 ft / 2 m (AMSL)
36 DME IML 108.70 MHz 18 nm / 33 km - - - 22 ft / 7 m (AMSL)

Popular Alternatives